Time;durP1;ratioP1;P1;durP2;ratioP2;P2;SDS_P1;SDS_P2;PMS_P1;PMS_P2;Temp;Humidity;BMP_temperature;BMP_pressure;BME280_temperature;BME280_humidity;BME280_pressure;Samples;Min_cycle;Max_cycle;Signal;HPM_P1;HPM_P2
2022/03/15 00:00:11;;;;;;;63.20;30.23;;;;;;;6.30;37.43;96842.94;5027431;28;20221;-62
2022/03/15 00:02:41;;;;;;;56.83;29.70;;;;;;;6.18;37.67;96841.78;5028262;28;20188;-61
2022/03/15 00:05:08;;;;;;;56.72;29.63;;;;;;;6.17;37.53;96840.16;5027821;28;20707;-61
2022/03/15 00:07:35;;;;;;;59.70;31.45;;;;;;;6.25;37.63;96834.03;5030707;28;20272;-61
2022/03/15 00:10:04;;;;;;;63.72;31.88;;;;;;;6.25;37.66;96829.66;5031618;28;20837;-62
2022/03/15 00:12:31;;;;;;;58.35;29.45;;;;;;;6.16;37.75;96841.16;5031827;28;20205;-61
2022/03/15 00:14:58;;;;;;;63.67;30.38;;;;;;;5.90;37.83;96835.56;5031604;28;20297;-62
2022/03/15 00:17:26;;;;;;;67.25;30.92;;;;;;;5.98;37.94;96838.09;5031977;28;20209;-61
2022/03/15 00:19:53;;;;;;;57.08;30.45;;;;;;;5.60;38.66;96844.31;5030994;28;20200;-61
2022/03/15 00:22:20;;;;;;;59.70;28.33;;;;;;;4.97;39.54;96836.88;5031965;28;20894;-60
2022/03/15 00:24:46;;;;;;;56.42;28.00;;;;;;;5.27;39.33;96848.19;5031030;28;20205;-60
2022/03/15 00:27:14;;;;;;;59.00;28.67;;;;;;;5.53;38.77;96838.22;5031955;28;20193;-61
2022/03/15 00:29:42;;;;;;;59.10;27.75;;;;;;;5.52;38.69;96847.81;5029754;28;20205;-60
2022/03/15 00:32:11;;;;;;;55.22;27.70;;;;;;;5.57;38.42;96839.44;5030263;28;20247;-61
2022/03/15 00:34:40;;;;;;;49.70;27.63;;;;;;;5.76;38.10;96831.16;5031185;28;20197;-61
2022/03/15 00:37:07;;;;;;;48.55;27.48;;;;;;;5.84;37.85;96833.69;5031613;28;20255;-61
2022/03/15 00:39:38;;;;;;;52.72;28.15;;;;;;;5.72;38.01;96819.47;5031301;28;20213;-61
2022/03/15 00:42:05;;;;;;;53.53;27.90;;;;;;;5.70;38.00;96824.88;5030381;28;20747;-61
2022/03/15 00:44:32;;;;;;;57.28;29.52;;;;;;;5.66;38.02;96828.00;5030876;28;20197;-63
2022/03/15 00:46:59;;;;;;;55.05;28.02;;;;;;;5.71;38.16;96830.88;5031430;28;20200;-62
2022/03/15 00:49:26;;;;;;;54.35;28.35;;;;;;;5.75;38.23;96829.53;5030860;28;20196;-60
2022/03/15 00:51:54;;;;;;;61.60;31.42;;;;;;;5.60;38.41;96826.91;5029660;28;20193;-61
2022/03/15 00:54:21;;;;;;;62.97;31.00;;;;;;;5.61;38.32;96825.13;5030581;28;20251;-60
2022/03/15 00:56:50;;;;;;;57.60;32.25;;;;;;;5.40;38.41;96823.19;5031472;28;20193;-61
2022/03/15 00:59:19;;;;;;;61.83;33.13;;;;;;;4.76;40.04;96808.91;5031021;28;20233;-62
2022/03/15 01:01:46;;;;;;;64.50;32.40;;;;;;;4.36;41.00;96816.16;5030470;28;20236;-63
2022/03/15 01:04:13;;;;;;;62.33;32.47;;;;;;;4.90;39.85;96816.00;5030512;28;20640;-61
2022/03/15 01:06:42;;;;;;;58.13;31.95;;;;;;;5.25;39.64;96806.78;5031257;28;20588;-61
2022/03/15 01:09:10;;;;;;;59.47;30.23;;;;;;;5.24;39.41;96807.75;5030989;28;20212;-62
2022/03/15 01:11:37;;;;;;;60.90;32.70;;;;;;;5.25;38.96;96800.75;5031023;28;20284;-59
2022/03/15 01:14:04;;;;;;;64.35;32.25;;;;;;;5.43;38.59;96796.03;5030740;28;20189;-61
2022/03/15 01:16:31;;;;;;;73.82;35.75;;;;;;;5.71;38.06;96799.69;5029634;28;20201;-61
2022/03/15 01:18:58;;;;;;;65.38;34.78;;;;;;;5.69;38.13;96797.22;5029578;28;20208;-62
2022/03/15 01:21:26;;;;;;;62.78;32.72;;;;;;;5.79;37.59;96808.19;5029420;28;20730;-62
2022/03/15 01:23:53;;;;;;;66.75;32.78;;;;;;;5.66;38.29;96812.38;5029972;28;20695;-62
2022/03/15 01:26:20;;;;;;;59.67;32.92;;;;;;;5.69;38.01;96791.25;5029317;28;20212;-62
2022/03/15 01:28:50;;;;;;;57.75;30.27;;;;;;;5.59;37.97;96799.28;5030176;28;20204;-61
2022/03/15 01:31:17;;;;;;;54.22;29.70;;;;;;;5.65;37.65;96800.38;5029148;28;20612;-63
2022/03/15 01:33:46;;;;;;;52.45;29.30;;;;;;;5.49;38.25;96800.53;5030492;28;20639;-61
2022/03/15 01:36:13;;;;;;;47.88;25.02;;;;;;;5.46;37.75;96811.28;5030344;28;20189;-61
2022/03/15 01:38:40;;;;;;;41.85;24.95;;;;;;;5.35;38.08;96806.50;5030827;28;20204;-62
2022/03/15 01:41:06;;;;;;;50.03;26.08;;;;;;;5.43;38.13;96817.66;5029698;28;20220;-62
2022/03/15 01:43:33;;;;;;;46.40;22.25;;;;;;;4.43;39.44;96812.72;5029897;28;20669;-62
2022/03/15 01:46:00;;;;;;;44.50;24.08;;;;;;;4.69;39.27;96797.59;5029954;28;20295;-61
2022/03/15 01:48:27;;;;;;;47.45;24.55;;;;;;;5.13;38.48;96816.78;5029100;28;20221;-62
2022/03/15 01:50:54;;;;;;;47.08;25.33;;;;;;;4.93;39.07;96815.63;5028306;28;20200;-61
2022/03/15 01:53:26;;;;;;;47.03;25.35;;;;;;;5.01;39.06;96823.38;5028860;28;20310;-62
2022/03/15 01:55:53;;;;;;;49.90;26.48;;;;;;;4.97;38.78;96821.28;5028571;28;20205;-61
2022/03/15 01:58:22;;;;;;;48.33;24.95;;;;;;;5.03;38.79;96825.78;5028390;28;20291;-63
2022/03/15 02:00:49;;;;;;;47.08;24.02;;;;;;;5.15;38.39;96835.59;5027816;28;20232;-60
2022/03/15 02:03:16;;;;;;;43.10;24.38;;;;;;;5.11;38.62;96829.13;5028392;28;20620;-61
2022/03/15 02:05:43;;;;;;;53.80;25.30;;;;;;;5.04;38.80;96836.00;5029174;28;20239;-62
2022/03/15 02:08:14;;;;;;;48.08;25.42;;;;;;;4.95;38.89;96834.44;5030044;28;20599;-61
2022/03/15 02:10:42;;;;;;;47.78;25.85;;;;;;;4.92;39.23;96821.81;5029501;28;20201;-62
2022/03/15 02:13:11;;;;;;;50.13;24.77;;;;;;;4.88;39.28;96817.13;5029749;28;20224;-62
2022/03/15 02:15:38;;;;;;;49.80;25.23;;;;;;;5.06;39.10;96815.03;5029633;28;20216;-60
2022/03/15 02:18:05;;;;;;;38.25;23.30;;;;;;;4.75;39.71;96822.09;5029725;28;20612;-62
2022/03/15 02:20:32;;;;;;;44.80;24.08;;;;;;;4.44;39.98;96798.75;5028785;28;20205;-60
2022/03/15 02:22:59;;;;;;;55.17;25.83;;;;;;;4.81;39.50;96824.00;5029816;28;20197;-61
2022/03/15 02:25:26;;;;;;;47.35;26.13;;;;;;;4.98;39.32;96812.53;5029006;28;20742;-60
2022/03/15 02:27:53;;;;;;;51.30;26.42;;;;;;;4.75;40.14;96809.91;5029670;28;20197;-63
2022/03/15 02:30:23;;;;;;;48.35;25.45;;;;;;;4.86;39.69;96809.50;5028371;28;21045;-61
2022/03/15 02:32:51;;;;;;;47.42;25.02;;;;;;;4.93;39.43;96800.03;5029569;28;20193;-62
2022/03/15 02:35:18;;;;;;;40.80;22.90;;;;;;;4.95;39.33;96794.66;5028988;28;20193;-61
2022/03/15 02:37:45;;;;;;;46.78;25.20;;;;;;;5.04;39.09;96776.25;5029853;28;20185;-62
2022/03/15 02:40:12;;;;;;;44.55;24.60;;;;;;;4.87;39.29;96786.94;5029016;28;20209;-61
2022/03/15 02:42:40;;;;;;;45.58;25.35;;;;;;;4.85;39.50;96781.91;5029064;28;20233;-62
2022/03/15 02:45:07;;;;;;;41.22;23.73;;;;;;;4.90;38.98;96779.63;5028459;28;20197;-61
2022/03/15 02:47:34;;;;;;;45.30;24.58;;;;;;;4.86;38.92;96791.31;5028844;28;20185;-61
2022/03/15 02:50:01;;;;;;;48.38;24.02;;;;;;;4.94;38.72;96795.66;5028791;28;20197;-61
2022/03/15 02:52:29;;;;;;;46.38;25.23;;;;;;;4.93;39.11;96809.63;5029102;28;20185;-61
2022/03/15 02:54:58;;;;;;;44.70;23.88;;;;;;;4.82;39.55;96804.81;5028513;28;20193;-62
2022/03/15 02:57:25;;;;;;;46.58;24.30;;;;;;;4.80;38.98;96802.41;5028911;28;20276;-61
2022/03/15 02:59:52;;;;;;;45.28;24.95;;;;;;;4.88;39.15;96799.75;5028319;28;20666;-61
2022/03/15 03:02:20;;;;;;;47.78;27.15;;;;;;;4.78;39.39;96806.97;5028947;28;20235;-61
2022/03/15 03:04:48;;;;;;;46.38;26.70;;;;;;;4.94;39.37;96799.06;5029210;28;20581;-64
2022/03/15 03:07:17;;;;;;;46.40;26.73;;;;;;;5.01;38.85;96791.38;5029017;28;20197;-61
2022/03/15 03:09:46;;;;;;;46.28;25.58;;;;;;;4.87;39.09;96787.75;5028262;28;20204;-61
2022/03/15 03:12:15;;;;;;;46.92;26.13;;;;;;;4.95;39.00;96787.69;5029285;28;20197;-60
2022/03/15 03:14:47;;;;;;;56.65;28.73;;;;;;;4.75;39.39;96789.13;5028712;28;20279;-60
2022/03/15 03:17:15;;;;;;;50.30;27.75;;;;;;;4.74;39.72;96784.94;5029358;28;20779;-61
2022/03/15 03:19:42;;;;;;;64.18;31.70;;;;;;;4.63;39.83;96782.75;5028446;28;20219;-61
2022/03/15 03:22:10;;;;;;;66.97;34.72;;;;;;;4.71;39.55;96769.69;5028876;28;20725;-63
2022/03/15 03:24:37;;;;;;;68.05;34.58;;;;;;;4.81;39.32;96780.66;5028130;28;20253;-60
2022/03/15 03:27:04;;;;;;;70.93;36.28;;;;;;;4.65;40.01;96780.75;5028704;28;20193;-62
2022/03/15 03:29:32;;;;;;;102.07;46.42;;;;;;;4.76;39.31;96780.34;5028458;28;20194;-62
2022/03/15 03:31:59;;;;;;;98.78;48.47;;;;;;;4.79;39.33;96774.84;5028474;28;20675;-62
2022/03/15 03:34:27;;;;;;;101.40;48.08;;;;;;;4.67;39.59;96778.78;5028356;28;20193;-61
2022/03/15 03:36:53;;;;;;;103.20;48.88;;;;;;;4.39;40.06;96780.28;5028663;28;20201;-62
2022/03/15 03:39:25;;;;;;;95.45;47.50;;;;;;;4.55;39.65;96774.19;5027781;28;20203;-63
2022/03/15 03:41:53;;;;;;;93.72;46.67;;;;;;;4.59;39.84;96776.28;5029496;28;20213;-62
2022/03/15 03:44:20;;;;;;;99.07;47.03;;;;;;;4.45;39.91;96776.19;5032139;28;20205;-62
2022/03/15 03:46:46;;;;;;;98.20;47.47;;;;;;;4.70;39.38;96778.47;5032596;28;20595;-62
2022/03/15 03:49:13;;;;;;;106.70;48.72;;;;;;;4.53;39.70;96782.13;5032224;28;20196;-62
2022/03/15 03:51:41;;;;;;;100.40;49.80;;;;;;;4.60;39.64;96785.66;5033003;28;20209;-63
2022/03/15 03:54:08;;;;;;;102.75;49.10;;;;;;;4.70;39.29;96794.03;5032348;28;20216;-61
2022/03/15 03:56:35;;;;;;;94.10;47.03;;;;;;;4.56;39.67;96794.75;5032795;28;20235;-62
2022/03/15 03:59:02;;;;;;;96.03;47.80;;;;;;;4.56;39.47;96793.97;5032160;28;20323;-61
2022/03/15 04:01:29;;;;;;;85.82;41.92;;;;;;;4.57;39.57;96814.56;5032153;28;20743;-61
2022/03/15 04:04:03;;;;;;;85.97;43.15;;;;;;;4.75;39.37;96817.69;5031731;28;20584;-61
2022/03/15 04:06:29;;;;;;;85.55;41.70;;;;;;;4.37;39.89;96831.56;5032569;28;20263;-61
2022/03/15 04:08:58;;;;;;;82.13;41.30;;;;;;;4.35;40.34;96825.72;5031652;28;20193;-64
2022/03/15 04:11:26;;;;;;;76.25;41.28;;;;;;;4.21;40.35;96818.66;5032699;28;20185;-62
2022/03/15 04:13:52;;;;;;;82.00;40.35;;;;;;;4.31;40.19;96834.81;5031503;28;20205;-60
2022/03/15 04:16:20;;;;;;;75.68;40.33;;;;;;;4.18;40.33;96829.34;5032136;28;20253;-62
2022/03/15 04:18:46;;;;;;;82.10;41.08;;;;;;;4.26;40.44;96825.91;5031752;28;20798;-62
2022/03/15 04:21:13;;;;;;;72.53;39.08;;;;;;;4.27;40.55;96835.34;5031875;28;20220;-62
2022/03/15 04:23:41;;;;;;;68.55;37.85;;;;;;;4.27;40.27;96830.94;5031473;28;20271;-61
2022/03/15 04:26:07;;;;;;;75.07;38.67;;;;;;;3.72;41.71;96843.13;5031862;28;20276;-61
2022/03/15 04:28:34;;;;;;;75.18;39.78;;;;;;;4.11;40.70;96849.16;5032671;28;20202;-61
2022/03/15 04:31:01;;;;;;;75.90;38.55;;;;;;;3.96;41.23;96851.66;5031152;28;20247;-62
2022/03/15 04:33:28;;;;;;;72.65;36.88;;;;;;;4.05;40.86;96844.69;5031754;28;20209;-60
2022/03/15 04:35:55;;;;;;;70.80;37.20;;;;;;;4.10;40.74;96837.19;5031519;28;20204;-61
2022/03/15 04:38:22;;;;;;;74.43;38.45;;;;;;;4.15;40.08;96840.09;5031513;28;20206;-60
2022/03/15 04:40:52;;;;;;;76.65;38.58;;;;;;;3.93;40.79;96846.81;5031244;28;20754;-61
2022/03/15 04:43:19;;;;;;;71.80;37.78;;;;;;;3.89;40.74;96855.06;5031290;28;20212;-61
2022/03/15 04:45:46;;;;;;;81.25;41.25;;;;;;;3.88;41.23;96848.28;5031116;28;20209;-64
2022/03/15 04:48:13;;;;;;;84.95;44.08;;;;;;;3.90;40.59;96852.34;5031398;28;20205;-62
2022/03/15 04:50:40;;;;;;;87.40;44.42;;;;;;;3.81;40.86;96849.94;5031516;28;20209;-61
2022/03/15 04:53:08;;;;;;;83.72;44.97;;;;;;;3.84;41.05;96847.00;5031264;28;20213;-60
2022/03/15 04:55:34;;;;;;;100.68;52.03;;;;;;;3.78;41.04;96852.81;5031343;28;20209;-60
2022/03/15 04:58:01;;;;;;;102.35;52.65;;;;;;;3.64;41.17;96850.91;5031955;28;20198;-61
2022/03/15 05:00:28;;;;;;;102.28;54.00;;;;;;;3.86;40.92;96829.47;5031690;28;20259;-61
2022/03/15 05:02:57;;;;;;;115.03;56.92;;;;;;;3.48;41.63;96848.34;5035596;28;20252;-62
2022/03/15 05:05:24;;;;;;;124.15;61.28;;;;;;;3.78;41.17;96847.63;5029168;28;20255;-62
2022/03/15 05:07:51;;;;;;;113.43;56.53;;;;;;;4.20;40.64;96842.97;5029643;28;20189;-62
2022/03/15 05:13:03;;;;;;;116.57;60.00;;;;;;;4.06;40.63;96846.28;5031153;28;20201;-60
2022/03/15 05:15:31;;;;;;;116.60;58.85;;;;;;;3.89;41.34;96849.88;5030207;28;20193;-59
2022/03/15 05:17:58;;;;;;;120.15;60.20;;;;;;;3.96;41.10;96856.03;5030232;28;20201;-61
2022/03/15 05:20:24;;;;;;;124.30;61.25;;;;;;;3.07;43.22;96857.91;5030534;28;20188;-62
2022/03/15 05:22:51;;;;;;;111.50;54.83;;;;;;;2.48;44.76;96866.69;5030674;28;20221;-61
2022/03/15 05:25:18;;;;;;;105.75;51.67;;;;;;;2.80;44.40;96871.97;5028720;28;20206;-62
2022/03/15 05:27:45;;;;;;;110.20;55.97;;;;;;;3.49;43.10;96862.91;5029870;28;20215;-61
2022/03/15 05:30:12;;;;;;;116.25;57.08;;;;;;;3.94;42.17;96853.59;5030867;28;20193;-61
2022/03/15 05:32:39;;;;;;;118.95;59.25;;;;;;;3.99;41.33;96824.59;5030729;28;20189;-62
2022/03/15 05:35:07;;;;;;;119.78;58.53;;;;;;;4.29;41.47;96852.34;5029738;28;20895;-60
2022/03/15 05:37:33;;;;;;;120.95;61.78;;;;;;;4.21;47.28;96852.38;5029962;28;20197;-61
2022/03/15 05:40:00;;;;;;;111.18;59.67;;;;;;;4.71;47.71;96847.59;5030349;28;20696;-61
2022/03/15 05:42:27;;;;;;;106.50;51.05;;;;;;;4.64;43.03;96857.03;5030406;28;20220;-62
2022/03/15 05:44:54;;;;;;;97.43;50.30;;;;;;;4.50;42.75;96850.00;5027238;28;20193;-62
2022/03/15 05:47:21;;;;;;;107.18;56.22;;;;;;;4.87;41.91;96844.88;5029149;28;20730;-62
2022/03/15 05:49:48;;;;;;;103.32;54.97;;;;;;;4.97;42.11;96844.66;5029717;28;20201;-62
2022/03/15 05:52:15;;;;;;;105.88;53.50;;;;;;;4.92;41.64;96840.00;5029182;28;20216;-63
2022/03/15 05:54:42;;;;;;;91.30;49.00;;;;;;;5.12;41.41;96850.72;5029661;28;20201;-63
2022/03/15 05:57:09;;;;;;;96.93;48.42;;;;;;;5.05;41.22;96848.00;5028596;28;20759;-62
2022/03/15 05:59:36;;;;;;;93.20;48.67;;;;;;;5.18;40.87;96850.84;5026836;28;20232;-62
2022/03/15 06:02:03;;;;;;;83.00;46.35;;;;;;;5.34;40.77;96854.28;5028222;28;20296;-61
2022/03/15 06:04:30;;;;;;;88.47;47.25;;;;;;;5.47;40.70;96851.91;5027108;28;20236;-62
2022/03/15 06:06:57;;;;;;;97.85;51.38;;;;;;;5.41;40.88;96856.03;5028437;28;20765;-63
2022/03/15 06:09:25;;;;;;;98.90;51.35;;;;;;;5.52;40.44;96863.41;5029377;28;20197;-62
2022/03/15 06:11:54;;;;;;;115.13;61.20;;;;;;;5.57;40.54;96866.28;5030111;28;20215;-62
2022/03/15 06:14:21;;;;;;;132.25;69.10;;;;;;;5.21;40.85;96847.09;5029557;28;20297;-62
2022/03/15 06:16:48;;;;;;;139.15;68.90;;;;;;;5.57;40.64;96865.47;5029764;28;20189;-61
2022/03/15 06:19:15;;;;;;;122.25;64.45;;;;;;;5.74;40.55;96851.34;5029340;28;20212;-61
2022/03/15 06:21:42;;;;;;;127.70;69.93;;;;;;;5.79;40.95;96864.59;5030016;28;20290;-61
2022/03/15 06:24:10;;;;;;;115.25;57.42;;;;;;;5.62;41.11;96860.56;5029562;28;20185;-62
2022/03/15 06:26:38;;;;;;;93.43;49.72;;;;;;;5.56;42.05;96863.84;5029347;28;20283;-61
2022/03/15 06:29:05;;;;;;;96.82;50.45;;;;;;;5.53;41.84;96859.81;5028065;28;20197;-61
2022/03/15 06:31:33;;;;;;;94.38;50.60;;;;;;;5.69;41.89;96856.25;5029799;28;20201;-61
2022/03/15 06:34:04;;;;;;;108.63;54.05;;;;;;;6.04;40.94;96863.41;5029193;28;20749;-61
2022/03/15 06:36:31;;;;;;;106.60;53.47;;;;;;;5.89;41.26;96854.78;5029529;28;20499;-61
2022/03/15 06:39:00;;;;;;;102.68;55.17;;;;;;;6.20;40.48;96860.63;5028171;28;20213;-61
2022/03/15 06:41:27;;;;;;;109.57;55.88;;;;;;;6.22;40.60;96866.47;5029590;28;20259;-61
2022/03/15 06:43:54;;;;;;;104.28;54.92;;;;;;;6.47;39.90;96867.78;5028938;28;20209;-62
2022/03/15 06:46:21;;;;;;;101.97;53.13;;;;;;;6.56;39.77;96869.31;5030049;28;20197;-62
2022/03/15 06:48:48;;;;;;;102.05;52.72;;;;;;;6.39;39.78;96862.66;5029301;28;20281;-62
2022/03/15 06:51:15;;;;;;;100.90;53.45;;;;;;;6.70;39.32;96857.22;5029520;28;20197;-61
2022/03/15 06:53:43;;;;;;;94.95;51.97;;;;;;;6.86;39.47;96860.41;5029078;28;20586;-61
2022/03/15 06:56:10;;;;;;;91.45;52.25;;;;;;;6.79;39.48;96856.94;5028981;28;20320;-60
2022/03/15 06:58:37;;;;;;;97.05;49.92;;;;;;;6.94;39.68;96860.31;5029174;28;20271;-62
2022/03/15 07:01:04;;;;;;;87.90;50.45;;;;;;;7.04;39.70;96858.19;5029049;28;20236;-60
2022/03/15 07:03:31;;;;;;;79.88;48.95;;;;;;;7.24;39.37;96858.41;5028907;28;20745;-61
2022/03/15 07:05:58;;;;;;;86.22;48.65;;;;;;;7.16;39.11;96864.56;5028771;28;20197;-60
2022/03/15 07:08:25;;;;;;;82.53;47.22;;;;;;;7.15;38.71;96859.53;5029366;28;20193;-62
2022/03/15 07:10:53;;;;;;;80.13;46.85;;;;;;;7.34;39.38;96858.06;5028039;28;20251;-61
2022/03/15 07:13:20;;;;;;;83.30;47.65;;;;;;;7.34;38.85;96868.50;5029068;28;20724;-61
2022/03/15 07:15:47;;;;;;;86.97;47.53;;;;;;;7.54;39.08;96865.06;5028164;28;20704;-62
2022/03/15 07:18:16;;;;;;;77.38;44.58;;;;;;;7.70;38.39;96856.19;5028924;28;20296;-62
2022/03/15 07:20:43;;;;;;;86.68;47.45;;;;;;;7.75;38.20;96861.63;5028377;28;20208;-61
2022/03/15 07:23:09;;;;;;;72.65;43.72;;;;;;;7.62;37.56;96872.78;5028990;28;20873;-61
2022/03/15 07:25:36;;;;;;;77.57;44.88;;;;;;;7.64;38.00;96859.53;5028656;28;20599;-59
2022/03/15 07:28:03;;;;;;;84.45;44.33;;;;;;;7.67;37.57;96853.94;5029408;28;20189;-61
2022/03/15 07:30:30;;;;;;;78.35;46.45;;;;;;;7.88;37.34;96864.34;5027964;28;20259;-60
2022/03/15 07:32:59;;;;;;;81.00;44.30;;;;;;;7.91;37.77;96862.16;5028834;28;20676;-61
2022/03/15 07:35:27;;;;;;;74.13;41.72;;;;;;;7.88;38.12;96861.75;5028028;28;20266;-60
2022/03/15 07:37:55;;;;;;;77.35;41.03;;;;;;;8.00;38.08;96861.00;5029101;28;20185;-61
2022/03/15 07:40:24;;;;;;;76.05;40.92;;;;;;;8.41;37.02;96868.88;5028349;28;20291;-63
2022/03/15 07:42:52;;;;;;;70.82;40.42;;;;;;;8.36;37.06;96860.84;5029645;28;20237;-61
2022/03/15 07:45:19;;;;;;;67.05;40.63;;;;;;;8.39;37.47;96860.47;5027987;28;20201;-61
2022/03/15 07:47:50;;;;;;;67.60;40.97;;;;;;;8.32;37.38;96854.38;5029943;28;20299;-60
2022/03/15 07:50:17;;;;;;;67.35;39.45;;;;;;;8.65;37.41;96850.09;5028924;28;20248;-62
2022/03/15 07:52:46;;;;;;;69.38;40.78;;;;;;;8.85;36.24;96853.59;5029229;28;20185;-60
2022/03/15 07:55:14;;;;;;;75.07;39.75;;;;;;;8.54;35.81;96853.28;5028074;28;20208;-61
2022/03/15 07:57:40;;;;;;;65.25;38.75;;;;;;;7.97;36.75;96848.31;5029607;28;20197;-60
2022/03/15 08:00:08;;;;;;;68.25;40.08;;;;;;;8.75;36.34;96847.13;5028828;28;20232;-61
2022/03/15 08:02:41;;;;;;;73.35;39.30;;;;;;;9.20;35.55;96833.34;5029119;28;20259;-60
2022/03/15 08:05:09;;;;;;;82.28;41.90;;;;;;;9.23;36.20;96841.59;5028345;28;20189;-60
2022/03/15 08:07:36;;;;;;;74.45;40.70;;;;;;;9.10;35.12;96832.94;5029287;28;20642;-61
2022/03/15 08:10:09;;;;;;;72.80;40.28;;;;;;;9.35;36.08;96841.81;5028770;28;20208;-61
2022/03/15 08:12:37;;;;;;;73.15;40.30;;;;;;;9.56;35.33;96835.59;5027750;28;20687;-60
2022/03/15 08:15:06;;;;;;;70.50;40.90;;;;;;;9.80;33.88;96832.34;5028963;28;20205;-61
2022/03/15 08:17:34;;;;;;;66.55;38.72;;;;;;;9.69;34.27;96835.59;5029055;28;20209;-61
2022/03/15 08:20:01;;;;;;;70.32;38.58;;;;;;;9.49;34.50;96832.19;5028773;28;20205;-60
2022/03/15 08:22:30;;;;;;;59.85;36.20;;;;;;;9.84;37.23;96825.69;5028866;28;20303;-62
2022/03/15 08:24:58;;;;;;;59.95;33.22;;;;;;;10.24;35.09;96822.03;5028411;28;20200;-61
2022/03/15 08:27:25;;;;;;;53.00;30.48;;;;;;;10.51;34.62;96818.28;5029349;28;20194;-61
2022/03/15 08:29:52;;;;;;;55.55;31.42;;;;;;;10.71;34.23;96813.75;5032454;28;20704;-61
2022/03/15 08:32:19;;;;;;;44.70;29.38;;;;;;;10.96;32.82;96819.91;5032971;28;20181;-60
2022/03/15 08:34:47;;;;;;;48.25;28.05;;;;;;;11.03;33.04;96810.19;5032184;28;20213;-61
2022/03/15 08:37:14;;;;;;;43.83;24.90;;;;;;;10.89;31.51;96803.38;5032207;28;20197;-60
2022/03/15 08:39:41;;;;;;;58.10;30.05;;;;;;;11.14;31.53;96809.50;5032235;28;20200;-61
2022/03/15 08:42:09;;;;;;;47.42;25.55;;;;;;;10.26;30.28;96809.53;5032587;28;20228;-61
2022/03/15 08:44:36;;;;;;;44.35;26.40;;;;;;;11.05;32.24;96810.78;5032411;28;20224;-60
2022/03/15 08:47:03;;;;;;;44.90;27.27;;;;;;;11.11;30.80;96804.66;5033083;28;20239;-61
2022/03/15 08:49:30;;;;;;;47.00;28.38;;;;;;;10.38;30.38;96794.78;5032991;28;20618;-61
2022/03/15 08:51:57;;;;;;;43.50;26.15;;;;;;;10.67;32.61;96786.38;5032895;28;20272;-60
2022/03/15 08:54:25;;;;;;;55.75;29.73;;;;;;;11.07;31.96;96787.75;5031868;28;20211;-60
2022/03/15 08:56:52;;;;;;;64.37;31.43;;;;;;;11.52;30.94;96777.09;5032327;28;20201;-61
2022/03/15 08:59:20;;;;;;;57.27;31.90;;;;;;;11.48;30.39;96775.94;5031621;28;20521;-60
2022/03/15 09:01:48;;;;;;;50.23;30.90;;;;;;;11.58;29.71;96773.63;5032157;28;20444;-61
2022/03/15 09:04:15;;;;;;;53.50;32.13;;;;;;;11.75;30.75;96775.50;5031501;28;20498;-61
2022/03/15 09:06:42;;;;;;;61.67;31.90;;;;;;;11.95;30.88;96772.69;5031698;28;20448;-60
2022/03/15 09:09:09;;;;;;;51.07;32.17;;;;;;;12.50;30.45;96774.25;5031337;28;20438;-61
2022/03/15 09:11:36;;;;;;;52.00;31.13;;;;;;;12.57;29.25;96764.44;5031791;28;20443;-61
2022/03/15 09:14:03;;;;;;;51.13;32.53;;;;;;;12.75;29.64;96764.44;5031479;28;20435;-61
2022/03/15 09:16:30;;;;;;;56.67;32.90;;;;;;;12.61;28.68;96755.09;5031459;28;20452;-60
2022/03/15 09:18:58;;;;;;;51.90;32.17;;;;;;;12.95;28.85;96757.06;5031530;28;20431;-60
2022/03/15 09:21:25;;;;;;;53.97;32.00;;;;;;;12.86;28.40;96750.53;5032086;28;20452;-61
2022/03/15 09:23:52;;;;;;;50.03;30.93;;;;;;;13.38;28.41;96745.50;5030981;28;20471;-61
2022/03/15 09:26:18;;;;;;;57.07;34.87;;;;;;;13.10;27.81;96738.25;5031565;28;20451;-61
2022/03/15 09:28:45;;;;;;;51.07;31.07;;;;;;;13.46;28.06;96739.91;5031531;28;20517;-61
2022/03/15 09:31:12;;;;;;;63.27;33.30;;;;;;;13.53;28.53;96735.31;5031099;28;20470;-61
2022/03/15 09:33:39;;;;;;;55.80;33.87;;;;;;;13.98;28.60;96731.03;5031894;28;20471;-61
2022/03/15 09:36:06;;;;;;;57.13;33.97;;;;;;;14.38;27.26;96731.91;5030867;28;20458;-60
2022/03/15 09:38:33;;;;;;;61.77;34.13;;;;;;;14.18;27.26;96720.91;5031557;28;20448;-60
2022/03/15 09:41:04;;;;;;;57.67;33.10;;;;;;;14.68;27.27;96716.66;5030300;28;20829;-61
2022/03/15 09:43:40;;;;;;;50.97;31.83;;;;;;;14.96;26.68;96706.06;5031339;28;20483;-59
2022/03/15 09:46:09;;;;;;;54.80;32.17;;;;;;;15.22;26.98;96708.06;5030641;28;20443;-62
2022/03/15 09:48:56;;;;;;;62.37;33.23;;;;;;;14.55;26.49;96700.31;5030474;28;20475;-61
2022/03/15 09:51:23;;;;;;;55.43;32.10;;;;;;;15.02;26.84;96702.47;5030399;28;20439;-61
2022/03/15 09:53:55;;;;;;;52.30;30.57;;;;;;;15.31;25.72;96700.53;5030606;28;20439;-60
2022/03/15 09:56:22;;;;;;;51.17;29.80;;;;;;;15.48;26.49;96705.84;5030594;28;20946;-61
2022/03/15 09:58:50;;;;;;;51.40;30.43;;;;;;;15.08;24.67;96701.53;5030830;28;20650;-61
2022/03/15 10:01:18;;;;;;;49.80;29.63;;;;;;;15.16;26.21;96698.47;5030727;28;20447;-61
2022/03/15 10:03:49;;;;;;;64.33;30.13;;;;;;;15.99;26.31;96692.28;5030851;28;20491;-60
2022/03/15 10:06:16;;;;;;;44.63;29.77;;;;;;;16.14;24.25;96687.19;5030400;28;21032;-61
2022/03/15 10:08:43;;;;;;;49.00;28.20;;;;;;;13.64;24.71;96650.22;5031038;28;20479;-61
2022/03/15 10:11:12;;;;;;;40.90;28.60;;;;;;;14.93;24.55;96677.50;5030479;28;20494;-60
2022/03/15 10:13:43;;;;;;;47.17;28.13;;;;;;;15.82;24.78;96670.41;5030968;28;20534;-61
2022/03/15 10:16:13;;;;;;;52.33;28.03;;;;;;;16.23;23.30;96668.00;5030053;28;20841;-61
2022/03/15 10:18:52;;;;;;;62.67;26.77;;;;;;;16.56;23.93;96664.41;5030817;28;20436;-62
2022/03/15 10:21:21;;;;;;;48.87;27.13;;;;;;;16.61;22.94;96667.09;5030874;28;20444;-60
2022/03/15 10:23:48;;;;;;;42.57;25.27;;;;;;;16.40;23.08;96660.00;5030367;28;20590;-61
2022/03/15 10:26:25;;;;;;;44.00;25.10;;;;;;;16.69;22.93;96653.44;5030043;28;21068;-61
2022/03/15 10:28:54;;;;;;;38.03;23.97;;;;;;;16.64;21.74;96658.66;5030132;28;20451;-60
2022/03/15 10:31:23;;;;;;;45.80;24.13;;;;;;;16.49;23.18;96640.00;5030109;28;20808;-60
2022/03/15 10:33:54;;;;;;;38.47;22.07;;;;;;;16.87;21.71;96647.75;5029942;28;20463;-61
2022/03/15 10:36:22;;;;;;;34.20;20.10;;;;;;;16.99;20.83;96635.13;5030143;28;20432;-62
2022/03/15 10:38:51;;;;;;;32.50;20.03;;;;;;;16.58;20.88;96641.16;5030147;28;20435;-61
2022/03/15 10:41:19;;;;;;;36.13;19.63;;;;;;;16.65;20.69;96631.16;5030130;28;20444;-62
2022/03/15 10:43:53;;;;;;;29.73;19.50;;;;;;;17.01;21.17;96617.16;5030060;28;20917;-60
2022/03/15 10:46:25;;;;;;;33.53;18.63;;;;;;;16.30;20.10;96617.53;5030063;28;20432;-61
2022/03/15 10:49:00;;;;;;;32.73;18.73;;;;;;;16.67;21.16;96618.47;5029747;28;20477;-59
2022/03/15 10:51:27;;;;;;;36.67;17.27;;;;;;;17.43;19.85;96605.75;5030314;28;20471;-61
2022/03/15 10:54:02;;;;;;;28.10;16.30;;;;;;;17.69;20.41;96603.03;5029741;28;20824;-61
2022/03/15 10:56:30;;;;;;;24.87;15.10;;;;;;;17.41;18.93;96599.94;5029374;28;20443;-60
2022/03/15 10:58:59;;;;;;;28.17;14.87;;;;;;;17.07;18.31;96592.31;5029125;28;20483;-60
2022/03/15 11:01:28;;;;;;;21.60;13.87;;;;;;;17.51;18.47;96592.06;5029780;28;20440;-60
2022/03/15 11:03:57;;;;;;;20.73;12.60;;;;;;;16.09;18.37;96595.34;5029021;28;20531;-61
2022/03/15 11:06:48;;;;;;;21.80;13.27;;;;;;;15.66;18.34;96597.22;5029340;28;20487;-60
2022/03/15 11:09:31;;;;;;;23.97;12.67;;;;;;;16.53;19.69;96585.50;5029058;28;20543;-60
2022/03/15 11:12:02;;;;;;;17.97;12.43;;;;;;;17.05;18.47;96575.88;5029330;28;20451;-61
2022/03/15 11:14:57;;;;;;;19.90;11.40;;;;;;;17.29;18.48;96560.38;5029325;28;20444;-61
2022/03/15 11:17:25;;;;;;;21.33;11.67;;;;;;;17.26;18.52;96562.75;5029352;28;20432;-60
2022/03/15 11:19:57;;;;;;;22.87;11.57;;;;;;;17.37;18.20;96559.09;5029108;28;20521;-61
2022/03/15 11:22:30;;;;;;;21.27;10.03;;;;;;;17.01;18.33;96543.00;5029699;28;20822;-62
2022/03/15 11:25:04;;;;;;;17.50;8.80;;;;;;;18.05;18.22;96542.94;5029075;28;20463;-61
2022/03/15 11:27:33;;;;;;;15.10;8.57;;;;;;;17.52;17.28;96543.28;5029693;28;20530;-61